createdAt,value
2022-11-01T00:01:50.359Z,101006.00
2022-11-01T00:04:37.716Z,101005.13
2022-11-01T00:07:08.491Z,101004.25
2022-11-01T00:10:05.184Z,101009.50
2022-11-01T00:12:36.184Z,101002.41
2022-11-01T00:15:17.553Z,101005.91
2022-11-01T00:18:08.764Z,100998.00
2022-11-01T00:20:49.385Z,100996.25
2022-11-01T00:23:32.369Z,100999.75
2022-11-01T00:26:13.725Z,100995.41
2022-11-01T00:31:57.099Z,100989.22
2022-11-01T00:37:32.559Z,100981.22
2022-11-01T00:40:00.803Z,100981.22
2022-11-01T00:42:30.391Z,100978.53
2022-11-01T00:44:59.763Z,100972.34
2022-11-01T00:47:28.158Z,100967.09
2022-11-01T00:49:56.371Z,100961.78
2022-11-01T00:52:24.624Z,100961.75
2022-11-01T00:54:52.841Z,100947.66
2022-11-01T00:57:21.140Z,100953.75
2022-11-01T00:59:50.788Z,100950.19
2022-11-01T01:02:19.169Z,100945.75
2022-11-01T01:04:48.941Z,100951.00
2022-11-01T01:07:17.806Z,100945.66
2022-11-01T01:09:45.997Z,100947.38
2022-11-01T01:12:14.313Z,100952.63
2022-11-01T01:14:42.522Z,100951.72
2022-11-01T01:17:12.138Z,100947.31
2022-11-01T01:19:40.551Z,100943.75
2022-11-01T01:22:09.025Z,100941.09
2022-11-01T01:24:37.416Z,100944.59
2022-11-01T01:27:05.819Z,100941.91
2022-11-01T01:29:35.101Z,100938.34
2022-11-01T01:32:03.368Z,100934.78
2022-11-01T01:34:35.859Z,100927.72
2022-11-01T01:37:04.330Z,100936.47
2022-11-01T01:39:32.564Z,100930.22
2022-11-01T01:42:01.515Z,100924.06
2022-11-01T01:45:18.278Z,100919.59
2022-11-01T01:47:50.879Z,100912.53
2022-11-01T01:50:28.617Z,100913.38
2022-11-01T01:53:03.763Z,100909.75
2022-11-01T01:55:38.514Z,100909.72
2022-11-01T01:58:08.695Z,100888.56
2022-11-01T02:00:37.149Z,100887.63
2022-11-01T02:03:06.223Z,100877.03
2022-11-01T02:05:45.620Z,100888.41
2022-11-01T02:08:15.875Z,100868.16
2022-11-01T02:10:44.678Z,100871.63
2022-11-01T02:13:15.061Z,100865.44
2022-11-01T02:16:09.552Z,100849.63
2022-11-01T02:18:46.832Z,100851.34
2022-11-01T02:21:58.344Z,100842.56
2022-11-01T02:25:25.349Z,100838.19
2022-11-01T02:28:20.427Z,100838.16
2022-11-01T02:31:01.614Z,100830.28
2022-11-01T02:33:35.406Z,100824.94
2022-11-01T02:36:12.087Z,100823.13
2022-11-01T02:38:47.310Z,100816.94
2022-11-01T02:41:24.582Z,100813.41
2022-11-01T02:43:57.478Z,100820.44
2022-11-01T02:46:45.385Z,100816.91
2022-11-01T02:49:18.928Z,100808.94
2022-11-01T02:51:48.868Z,100815.97
2022-11-01T02:54:23.047Z,100807.13
2022-11-01T02:56:52.207Z,100807.13
2022-11-01T02:59:25.964Z,100804.47
2022-11-01T03:02:02.288Z,100798.28
2022-11-01T03:04:32.322Z,100799.19
2022-11-01T03:07:04.662Z,100806.19
2022-11-01T03:09:34.947Z,100798.25
2022-11-01T03:12:06.495Z,100797.34
2022-11-01T03:14:44.635Z,100787.63
2022-11-01T03:17:22.004Z,100798.09
2022-11-01T03:19:57.955Z,100791.03
2022-11-01T03:22:31.271Z,100791.03
2022-11-01T03:25:29.456Z,100789.25
2022-11-01T03:28:00.060Z,100794.50
2022-11-01T03:30:31.306Z,100799.72
2022-11-01T03:33:00.619Z,100799.72
2022-11-01T03:35:36.232Z,100803.22
2022-11-01T03:38:10.112Z,100796.13
2022-11-01T03:40:45.823Z,100798.69
2022-11-01T03:43:16.478Z,100804.75
2022-11-01T03:45:45.184Z,100809.06
2022-11-01T03:48:13.362Z,100816.88
2022-11-01T03:50:49.372Z,100800.94
2022-11-01T03:53:18.039Z,100795.56
2022-11-01T03:55:46.244Z,100798.19
2022-11-01T03:58:14.532Z,100787.56
2022-11-01T04:00:46.067Z,100787.56
2022-11-01T04:03:17.292Z,100784.03
2022-11-01T04:05:46.909Z,100791.03
2022-11-01T04:08:15.173Z,100800.75
2022-11-01T04:10:44.714Z,100794.78
2022-11-01T04:13:13.702Z,100788.75
2022-11-01T04:15:59.711Z,100798.50
2022-11-01T04:18:45.833Z,100795.00
2022-11-01T04:21:18.286Z,100786.31
2022-11-01T04:23:47.542Z,100797.84
2022-11-01T04:26:18.663Z,100795.31
2022-11-01T04:28:57.136Z,100792.75
2022-11-01T04:31:27.400Z,100791.06
2022-11-01T04:33:58.588Z,100793.69
2022-11-01T04:36:28.632Z,100790.19
2022-11-01T04:38:58.095Z,100796.41
2022-11-01T04:41:29.224Z,100788.50
2022-11-01T04:43:59.844Z,100792.06
2022-11-01T04:46:31.429Z,100793.78
2022-11-01T04:48:59.645Z,100786.75
2022-11-01T04:51:29.386Z,100800.84
2022-11-01T04:53:57.653Z,100802.63
2022-11-01T04:56:25.775Z,100799.97
2022-11-01T04:58:53.945Z,100802.56
2022-11-01T05:01:22.324Z,100806.06
2022-11-01T05:03:50.696Z,100805.16
2022-11-01T05:06:18.978Z,100797.19
2022-11-01T05:08:49.007Z,100802.47
2022-11-01T05:11:17.272Z,100807.75
2022-11-01T05:13:45.519Z,100803.31
2022-11-01T05:16:19.392Z,100804.19
2022-11-01T05:18:49.485Z,100809.47
2022-11-01T05:21:19.982Z,100798.03
2022-11-01T05:23:50.365Z,100804.25
2022-11-01T05:26:18.533Z,100813.03
2022-11-01T05:28:46.814Z,100816.63
2022-11-01T05:31:15.317Z,100806.97
2022-11-01T05:33:43.528Z,100809.63
2022-11-01T05:36:11.736Z,100814.94
2022-11-01T05:38:39.963Z,100821.09
2022-11-01T05:41:10.307Z,100821.91
2022-11-01T05:43:38.917Z,100829.72
2022-11-01T05:46:08.941Z,100838.50
2022-11-01T05:48:37.144Z,100835.69
2022-11-01T05:51:09.229Z,100840.00
2022-11-01T05:53:37.648Z,100843.44
2022-11-01T05:56:06.218Z,100841.53
2022-11-01T05:58:36.017Z,100838.66
2022-11-01T06:01:07.368Z,100854.34
2022-11-01T06:03:37.675Z,100858.69
2022-11-01T06:06:06.703Z,100861.31
2022-11-01T06:08:34.922Z,100860.28
2022-11-01T06:11:03.999Z,100869.84
2022-11-01T06:13:33.214Z,100861.78
2022-11-01T06:16:04.870Z,100876.59
2022-11-01T06:18:33.484Z,100880.94
2022-11-01T06:21:01.606Z,100870.34
2022-11-01T06:23:29.805Z,100891.53
2022-11-01T06:26:02.746Z,100909.97
2022-11-01T06:28:31.375Z,100914.38
2022-11-01T06:33:37.255Z,100918.69
2022-11-01T06:36:06.592Z,100913.44
2022-11-01T06:38:35.248Z,100930.34
2022-11-01T06:41:05.315Z,100933.25
2022-11-01T06:43:33.544Z,100929.13
2022-11-01T06:46:03.404Z,100933.75
2022-11-01T06:48:31.742Z,100936.59
2022-11-01T06:50:59.868Z,100942.91
2022-11-01T06:53:28.151Z,100943.97
2022-11-01T06:55:57.305Z,100948.56
2022-11-01T06:58:25.542Z,100964.59
2022-11-01T07:00:53.651Z,100967.28
2022-11-01T07:03:23.430Z,100964.72
2022-11-01T07:05:51.589Z,100968.34
2022-11-01T07:08:19.879Z,100967.59
2022-11-01T07:10:51.484Z,100966.75
2022-11-01T07:13:19.721Z,100977.34
2022-11-01T07:15:47.880Z,100984.44
2022-11-01T07:18:23.338Z,100990.66
2022-11-01T07:20:51.508Z,100996.00
2022-11-01T07:23:20.093Z,100999.56
2022-11-01T07:25:53.080Z,101001.38
2022-11-01T07:28:21.388Z,101009.31
2022-11-01T07:30:50.237Z,101004.06
2022-11-01T07:33:18.790Z,101004.97
2022-11-01T07:35:49.255Z,101016.44
2022-11-01T07:38:17.973Z,101020.75
2022-11-01T07:40:49.479Z,101009.19
2022-11-01T07:43:18.890Z,100995.94
2022-11-01T07:45:47.660Z,100999.41
2022-11-01T07:48:18.852Z,101000.06
2022-11-01T07:50:48.338Z,101000.72
2022-11-01T07:53:19.139Z,101007.63
2022-11-01T07:55:48.127Z,101005.72
2022-11-01T07:58:17.769Z,101023.13
2022-11-01T08:00:46.978Z,101015.88
2022-11-01T08:03:17.254Z,101041.31
2022-11-01T08:05:48.098Z,101033.34
2022-11-01T08:08:17.425Z,101013.91
2022-11-01T08:10:46.077Z,101045.56
2022-11-01T08:13:18.581Z,101042.84
2022-11-01T08:15:47.329Z,101059.56
2022-11-01T08:18:16.298Z,101053.25
2022-11-01T08:20:44.588Z,101048.78
2022-11-01T08:23:14.384Z,101070.81
2022-11-01T08:25:42.658Z,101037.47
2022-11-01T08:28:18.660Z,101067.47
2022-11-01T08:30:50.384Z,101070.09
2022-11-01T08:33:18.833Z,101071.75
2022-11-01T08:35:50.498Z,101082.22
2022-11-01T08:38:20.753Z,101071.47
2022-11-01T08:40:49.148Z,101083.72
2022-11-01T08:43:17.978Z,101084.53
2022-11-01T08:45:46.197Z,101088.97
2022-11-01T08:48:14.656Z,101081.03
2022-11-01T08:50:43.132Z,101089.84
2022-11-01T08:53:14.297Z,101089.91
2022-11-01T08:55:43.921Z,101104.91
2022-11-01T08:58:12.281Z,101110.22
2022-11-01T09:00:40.455Z,101090.78
2022-11-01T09:03:08.629Z,101108.38
2022-11-01T09:05:37.454Z,101122.41
2022-11-01T09:08:06.531Z,101105.50
2022-11-01T09:10:35.352Z,101097.34
2022-11-01T09:13:05.171Z,101114.81
2022-11-01T09:15:33.831Z,101109.47
2022-11-01T09:18:07.228Z,101090.28
2022-11-01T09:20:35.561Z,101115.19
2022-11-01T09:23:04.273Z,101121.47
2022-11-01T09:25:32.775Z,101123.34
2022-11-01T09:28:01.030Z,101121.66
2022-11-01T09:30:31.025Z,101112.94
2022-11-01T09:32:59.350Z,101135.91
2022-11-01T09:35:28.201Z,101127.13
2022-11-01T09:37:59.430Z,101149.16
2022-11-01T09:40:29.229Z,101143.84
2022-11-01T09:43:01.765Z,101138.50
2022-11-01T09:45:34.467Z,101151.63
2022-11-01T09:48:05.826Z,101140.16
2022-11-01T09:50:38.193Z,101155.13
2022-11-01T09:53:15.641Z,101166.56
2022-11-01T09:55:50.642Z,101181.50
2022-11-01T09:58:31.410Z,101155.91
2022-11-01T10:01:18.398Z,101175.31
2022-11-01T10:04:07.589Z,101181.50
2022-11-01T10:06:41.400Z,101176.19
2022-11-01T10:09:20.589Z,101184.16
2022-11-01T10:12:09.617Z,101169.19
2022-11-01T10:15:02.033Z,101174.47
2022-11-01T10:17:52.489Z,101195.56
2022-11-01T10:20:27.243Z,101206.94
2022-11-01T10:22:55.904Z,101202.25
2022-11-01T10:25:26.256Z,101201.84
2022-11-01T10:28:04.768Z,101208.47
2022-11-01T10:30:40.054Z,101207.25
2022-11-01T10:33:27.150Z,101223.06
2022-11-01T10:35:59.915Z,101215.84
2022-11-01T10:41:33.532Z,101226.81
2022-11-01T10:44:05.238Z,101217.91
2022-11-01T10:46:39.930Z,101231.94
2022-11-01T10:49:24.568Z,101225.66
2022-11-01T10:51:56.094Z,101239.63
2022-11-01T10:54:28.024Z,101241.22
2022-11-01T10:57:01.643Z,101242.00
2022-11-01T10:59:36.459Z,101249.97
2022-11-01T11:02:15.290Z,101250.19
2022-11-01T11:04:45.053Z,101259.19
2022-11-01T11:07:19.746Z,101266.28
2022-11-01T11:09:51.129Z,101257.47
2022-11-01T11:12:22.174Z,101262.72
2022-11-01T11:14:54.586Z,101267.16
2022-11-01T11:17:28.869Z,101267.25
2022-11-01T11:20:04.822Z,101265.53
2022-11-01T11:22:38.045Z,101270.00
2022-11-01T11:25:08.788Z,101287.78
2022-11-01T11:27:37.358Z,101279.06
2022-11-01T11:30:08.681Z,101287.97
2022-11-01T11:32:39.652Z,101294.13
2022-11-01T11:35:19.206Z,101288.63
2022-11-01T11:37:56.096Z,101286.78
2022-11-01T11:40:25.966Z,101285.13
2022-11-01T11:42:56.747Z,101280.88
2022-11-01T11:45:29.508Z,101282.78
2022-11-01T11:48:00.309Z,101287.19
2022-11-01T11:50:36.006Z,101283.63
2022-11-01T11:53:07.875Z,101305.56
2022-11-01T11:55:43.756Z,101280.78
2022-11-01T11:58:27.764Z,101280.78
2022-11-01T12:01:02.554Z,101285.16
2022-11-01T12:03:31.325Z,101284.28
2022-11-01T12:06:07.563Z,101298.41
2022-11-01T12:08:47.225Z,101282.53
2022-11-01T12:11:19.048Z,101284.28
2022-11-01T12:14:01.761Z,101282.28
2022-11-01T12:16:30.420Z,101283.81
2022-11-01T12:19:00.657Z,101288.13
2022-11-01T12:21:35.963Z,101285.28
2022-11-01T12:24:20.013Z,101282.44
2022-11-01T12:26:51.378Z,101278.78
2022-11-01T12:29:30.161Z,101290.16
2022-11-01T12:32:04.661Z,101289.22
2022-11-01T12:34:39.844Z,101294.31
2022-11-01T12:37:20.620Z,101294.06
2022-11-01T12:39:55.617Z,101281.53
2022-11-01T12:42:30.919Z,101279.44
2022-11-01T12:45:07.482Z,101276.72
2022-11-01T12:47:42.721Z,101276.63
2022-11-01T12:50:21.011Z,101283.28
2022-11-01T12:52:56.304Z,101290.16
2022-11-01T12:55:33.306Z,101287.16
2022-11-01T12:58:03.438Z,101288.84
2022-11-01T13:00:44.034Z,101291.03
2022-11-01T13:03:29.967Z,101288.09
2022-11-01T13:06:05.809Z,101296.38
2022-11-01T13:08:45.670Z,101318.16
2022-11-01T13:11:24.900Z,101306.03
2022-11-01T13:14:08.026Z,101302.44
2022-11-01T13:16:43.537Z,101303.22
2022-11-01T13:19:19.744Z,101307.25
2022-11-01T13:21:54.397Z,101308.50
2022-11-01T13:24:31.032Z,101298.09
2022-11-01T13:27:08.294Z,101301.59
2022-11-01T13:29:45.435Z,101302.53
2022-11-01T13:32:22.891Z,101299.19
2022-11-01T13:35:22.802Z,101302.09
2022-11-01T13:37:58.326Z,101312.94
2022-11-01T13:40:36.521Z,101310.44
2022-11-01T13:43:12.001Z,101304.53
2022-11-01T13:46:41.643Z,101301.50
2022-11-01T13:49:41.812Z,101305.31
2022-11-01T13:52:17.539Z,101307.31
2022-11-01T13:54:54.257Z,101308.38
2022-11-01T13:57:26.149Z,101305.97
2022-11-01T13:59:58.106Z,101298.22
2022-11-01T14:03:00.167Z,101302.94
2022-11-01T14:05:39.783Z,101303.03
2022-11-01T14:08:28.736Z,101286.34
2022-11-01T14:10:57.703Z,101303.31
2022-11-01T14:13:48.404Z,101296.41
2022-11-01T14:16:22.692Z,101296.44
2022-11-01T14:19:20.775Z,101301.88
2022-11-01T14:21:54.046Z,101294.03
2022-11-01T14:24:34.533Z,101296.78
2022-11-01T14:27:24.656Z,101291.59
2022-11-01T14:29:58.153Z,101288.13
2022-11-01T14:32:30.214Z,101312.06
2022-11-01T14:35:05.156Z,101313.03
2022-11-01T14:37:42.535Z,101307.81
2022-11-01T14:40:33.220Z,101302.63
2022-11-01T14:43:18.756Z,101306.22
2022-11-01T14:45:54.002Z,101296.63
2022-11-01T14:48:29.741Z,101301.94
2022-11-01T14:51:04.647Z,101309.97
2022-11-01T14:53:37.325Z,101309.13
2022-11-01T14:56:17.134Z,101321.59
2022-11-01T14:58:45.777Z,101317.22
2022-11-01T15:01:18.587Z,101322.56
2022-11-01T15:03:55.608Z,101321.72
2022-11-01T15:06:25.674Z,101305.88
2022-11-01T15:08:58.474Z,101329.78
2022-11-01T15:11:29.659Z,101333.38
2022-11-01T15:13:59.999Z,101335.16
2022-11-01T15:16:30.151Z,101334.25
2022-11-01T15:19:02.585Z,101345.81
2022-11-01T15:21:31.604Z,101338.88
2022-11-01T15:24:02.768Z,101323.09
2022-11-01T15:26:34.170Z,101323.19
2022-11-01T15:29:05.825Z,101335.63
2022-11-01T15:31:36.247Z,101340.13
2022-11-01T15:34:19.910Z,101336.66
2022-11-01T15:36:48.180Z,101335.03
2022-11-01T15:39:22.611Z,101337.81
2022-11-01T15:41:52.207Z,101342.34
2022-11-01T15:44:23.361Z,101339.81
2022-11-01T15:46:55.717Z,101336.38
2022-11-01T15:49:28.281Z,101342.59
2022-11-01T15:52:01.551Z,101348.03
2022-11-01T15:54:42.667Z,101341.97
2022-11-01T15:57:19.835Z,101345.59
2022-11-01T15:59:57.451Z,101337.72
2022-11-01T16:02:33.011Z,101343.06
2022-11-01T16:05:02.175Z,101344.00
2022-11-01T16:07:33.472Z,101341.38
2022-11-01T16:10:03.674Z,101340.56
2022-11-01T16:12:38.469Z,101350.25
2022-11-01T16:15:09.838Z,101355.56
2022-11-01T16:17:43.219Z,101361.66
2022-11-01T16:20:31.284Z,101356.25
2022-11-01T16:23:01.073Z,101358.84
2022-11-01T16:25:31.652Z,101351.78
2022-11-01T16:28:07.479Z,101359.72
2022-11-01T16:30:48.188Z,101365.91
2022-11-01T16:33:31.138Z,101365.00
2022-11-01T16:36:01.625Z,101361.44
2022-11-01T16:38:44.227Z,101371.97
2022-11-01T16:41:21.275Z,101357.91
2022-11-01T16:43:53.951Z,101367.59
2022-11-01T16:46:24.213Z,101367.59
2022-11-01T16:48:56.748Z,101369.31
2022-11-01T16:51:28.938Z,101361.38
2022-11-01T16:53:58.601Z,101356.97
2022-11-01T16:56:37.846Z,101366.72
2022-11-01T16:59:10.124Z,101365.09
2022-11-01T17:01:39.470Z,101367.00
2022-11-01T17:04:14.140Z,101378.56
2022-11-01T17:06:42.461Z,101375.09
2022-11-01T17:09:15.807Z,101374.31
2022-11-01T17:11:50.837Z,101378.75
2022-11-01T17:14:20.934Z,101378.81
2022-11-01T17:16:51.662Z,101377.09
2022-11-01T17:19:26.512Z,101379.78
2022-11-01T17:21:56.364Z,101375.44
2022-11-01T17:24:27.194Z,101385.09
2022-11-01T17:27:00.158Z,101373.69
2022-11-01T17:29:29.520Z,101380.75
2022-11-01T17:31:57.714Z,101372.00
2022-11-01T17:34:28.878Z,101379.94
2022-11-01T17:36:58.534Z,101374.72
2022-11-01T17:39:29.552Z,101372.97
2022-11-01T17:41:58.071Z,101374.75
2022-11-01T17:44:26.933Z,101373.88
2022-11-01T17:46:55.221Z,101373.03
2022-11-01T17:49:24.568Z,101374.81
2022-11-01T17:51:55.287Z,101372.19
2022-11-01T17:56:52.277Z,101371.34
2022-11-01T17:59:20.732Z,101364.31
2022-11-01T18:01:49.064Z,101367.81
2022-11-01T18:04:17.685Z,101368.72
2022-11-01T18:06:46.597Z,101374.84
2022-11-01T18:09:24.625Z,101372.22
2022-11-01T18:12:01.100Z,101365.19
2022-11-01T18:14:49.355Z,101356.41
2022-11-01T18:17:39.892Z,101359.94
2022-11-01T18:20:21.966Z,101363.47
2022-11-01T18:22:55.535Z,101366.97
2022-11-01T18:25:32.560Z,101359.97
2022-11-01T18:28:02.621Z,101361.72
2022-11-01T18:30:31.801Z,101371.41
2022-11-01T18:33:04.567Z,101357.34
2022-11-01T18:35:38.756Z,101371.41
2022-11-01T18:38:29.487Z,101371.41
2022-11-01T18:41:02.104Z,101363.53
2022-11-01T18:43:34.321Z,101365.28
2022-11-01T18:46:23.761Z,101361.78
2022-11-01T18:49:00.733Z,101365.28
2022-11-01T18:51:32.514Z,101367.03
2022-11-01T18:54:23.093Z,101373.22
2022-11-01T18:56:55.191Z,101374.94
2022-11-01T18:59:30.169Z,101371.44
2022-11-01T19:02:03.055Z,101367.03
2022-11-01T19:04:36.680Z,101369.63
2022-11-01T19:07:13.648Z,101370.53
2022-11-01T19:09:44.698Z,101370.56
2022-11-01T19:12:17.292Z,101377.59
2022-11-01T19:14:48.717Z,101368.81
2022-11-01T19:17:24.572Z,101372.31
2022-11-01T19:19:53.761Z,101369.69
2022-11-01T19:22:37.916Z,101374.03
2022-11-01T19:25:20.134Z,101363.47
2022-11-01T19:27:52.833Z,101369.56
2022-11-01T19:30:25.844Z,101368.69
2022-11-01T19:32:57.667Z,101357.25
2022-11-01T19:35:26.108Z,101371.38
2022-11-01T19:37:56.500Z,101363.47
2022-11-01T19:40:28.524Z,101356.47
2022-11-01T19:43:01.642Z,101353.81
2022-11-01T19:45:34.295Z,101365.25
2022-11-01T19:48:04.690Z,101366.16
2022-11-01T19:50:39.468Z,101356.50
2022-11-01T19:53:22.072Z,101366.19
2022-11-01T19:55:54.207Z,101371.44
2022-11-01T19:58:30.069Z,101365.28
2022-11-01T20:01:41.663Z,101366.19
2022-11-01T20:04:27.170Z,101378.50
2022-11-01T20:07:01.040Z,101382.03
2022-11-01T20:09:36.567Z,101371.47
2022-11-01T20:12:05.177Z,101371.47
2022-11-01T20:14:35.320Z,101368.81
2022-11-01T20:17:03.702Z,101365.28
2022-11-01T20:19:32.288Z,101367.94
2022-11-01T20:22:00.570Z,101378.47
2022-11-01T20:24:30.332Z,101367.94
2022-11-01T20:26:59.670Z,101376.72
2022-11-01T20:29:27.843Z,101376.72
2022-11-01T20:31:57.414Z,101379.38
2022-11-01T20:34:27.251Z,101381.09
2022-11-01T20:37:26.983Z,101371.47
2022-11-01T20:39:43.814Z,101397.81
2022-11-01T20:42:12.016Z,101389.00
2022-11-01T20:44:40.325Z,101380.25
2022-11-01T20:47:09.934Z,101370.56
2022-11-01T20:49:38.122Z,101368.78
2022-11-01T20:52:34.036Z,101367.03
2022-11-01T20:54:54.804Z,101355.59
2022-11-01T20:57:28.189Z,101362.59
2022-11-01T20:59:57.264Z,101356.47
2022-11-01T21:02:28.024Z,101360.84
2022-11-01T21:05:02.131Z,101367.00
2022-11-01T21:07:31.848Z,101348.53
2022-11-01T21:10:00.097Z,101350.31
2022-11-01T21:12:43.774Z,101353.78
2022-11-01T21:15:35.001Z,101355.56
2022-11-01T21:18:41.854Z,101348.50
2022-11-01T21:21:32.548Z,101353.78
2022-11-01T21:24:03.508Z,101349.41
2022-11-01T21:26:35.876Z,101344.13
2022-11-01T21:29:07.980Z,101349.44
2022-11-01T21:31:40.114Z,101337.13
2022-11-01T21:34:26.586Z,101330.97
2022-11-01T21:36:55.296Z,101327.44
2022-11-01T21:39:26.977Z,101350.31
2022-11-01T21:41:57.536Z,101337.97
2022-11-01T21:44:29.418Z,101327.41
2022-11-01T21:47:02.482Z,101336.22
2022-11-01T21:49:33.930Z,101330.06
2022-11-01T21:52:05.552Z,101330.06
2022-11-01T21:54:37.682Z,101337.97
2022-11-01T21:57:08.451Z,101325.66
2022-11-01T21:59:37.406Z,101334.44
2022-11-01T22:02:09.500Z,101333.56
2022-11-01T22:04:39.253Z,101334.44
2022-11-01T22:07:09.677Z,101331.81
2022-11-01T22:09:38.847Z,101323.91
2022-11-01T22:12:08.218Z,101325.63
2022-11-01T22:14:37.400Z,101321.22
2022-11-01T22:17:05.777Z,101330.88
2022-11-01T22:19:33.928Z,101329.97
2022-11-01T22:22:03.458Z,101322.06
2022-11-01T22:24:31.625Z,101323.81
2022-11-01T22:27:00.191Z,101325.53
2022-11-01T22:29:28.397Z,101316.75
2022-11-01T22:31:56.593Z,101307.09
2022-11-01T22:34:24.780Z,101292.13
2022-11-01T22:36:53.020Z,101295.69
2022-11-01T22:39:26.668Z,101289.63
2022-11-01T22:41:55.662Z,101292.25
2022-11-01T22:44:28.006Z,101289.63
2022-11-01T22:46:59.273Z,101287.00
2022-11-01T22:49:30.378Z,101295.81
2022-11-01T22:52:02.916Z,101281.75
2022-11-01T22:54:39.942Z,101284.41
2022-11-01T22:57:19.094Z,101276.50
2022-11-01T22:59:51.285Z,101287.03
2022-11-01T23:02:28.121Z,101278.25
2022-11-01T23:05:21.721Z,101287.94
2022-11-01T23:07:51.531Z,101289.69
2022-11-01T23:10:30.920Z,101284.44
2022-11-01T23:13:39.582Z,101279.19
2022-11-01T23:16:23.523Z,101280.06
2022-11-01T23:18:53.687Z,101278.31
2022-11-01T23:21:23.357Z,101276.53
2022-11-01T23:23:51.995Z,101272.13
2022-11-01T23:26:22.315Z,101274.78
2022-11-01T23:28:53.507Z,101273.88
2022-11-01T23:31:23.414Z,101284.41
2022-11-01T23:33:52.144Z,101283.56
2022-11-01T23:36:24.105Z,101280.88
2022-11-01T23:38:56.386Z,101268.66
2022-11-01T23:41:31.211Z,101261.69
2022-11-01T23:44:01.610Z,101262.63
2022-11-01T23:46:30.446Z,101260.84
2022-11-01T23:49:03.374Z,101257.38
2022-11-01T23:51:32.247Z,101250.38
2022-11-01T23:54:01.101Z,101253.91
2022-11-01T23:56:31.644Z,101256.56
2022-11-01T23:59:04.906Z,101264.44
